createdAt,value
2023-03-19T00:00:28.725Z,6.93
2023-03-19T00:02:58.490Z,6.30
2023-03-19T00:05:25.497Z,5.97
2023-03-19T00:07:52.408Z,6.03
2023-03-19T00:10:19.231Z,5.85
2023-03-19T00:12:46.442Z,5.72
2023-03-19T00:15:14.647Z,5.97
2023-03-19T00:17:44.934Z,7.10
2023-03-19T00:20:15.165Z,7.82
2023-03-19T00:22:42.540Z,7.45
2023-03-19T00:25:10.074Z,7.07
2023-03-19T00:27:38.061Z,8.57
2023-03-19T00:30:06.884Z,8.13
2023-03-19T00:32:34.179Z,6.65
2023-03-19T00:35:01.488Z,8.00
2023-03-19T00:37:28.635Z,6.78
2023-03-19T00:39:56.124Z,8.20
2023-03-19T00:42:23.339Z,8.93
2023-03-19T00:44:50.331Z,7.63
2023-03-19T00:47:17.329Z,7.57
2023-03-19T00:49:44.604Z,7.97
2023-03-19T00:52:11.475Z,7.28
2023-03-19T00:54:38.365Z,8.82
2023-03-19T00:57:05.700Z,7.75
2023-03-19T00:59:32.499Z,8.43
2023-03-19T01:01:59.406Z,8.00
2023-03-19T01:04:26.301Z,9.10
2023-03-19T01:06:53.198Z,7.65
2023-03-19T01:09:20.186Z,8.30
2023-03-19T01:11:47.020Z,9.13
2023-03-19T01:14:17.131Z,9.27
2023-03-19T01:16:44.103Z,8.70
2023-03-19T01:19:12.374Z,8.77
2023-03-19T01:21:39.333Z,8.68
2023-03-19T01:24:06.286Z,9.27
2023-03-19T01:26:33.126Z,8.52
2023-03-19T01:29:00.104Z,9.02
2023-03-19T01:31:27.124Z,8.88
2023-03-19T01:33:53.975Z,8.02
2023-03-19T01:36:21.390Z,8.40
2023-03-19T01:38:48.437Z,8.20
2023-03-19T01:41:16.094Z,8.85
2023-03-19T01:43:43.057Z,9.00
2023-03-19T01:46:34.750Z,9.52
2023-03-19T01:49:06.294Z,9.38
2023-03-19T01:51:39.490Z,8.60
2023-03-19T01:54:10.528Z,8.68
2023-03-19T01:56:39.870Z,8.43
2023-03-19T01:59:14.860Z,10.90
2023-03-19T02:02:07.857Z,8.05
2023-03-19T02:04:36.519Z,8.60
2023-03-19T02:07:04.640Z,8.40
2023-03-19T02:09:32.276Z,7.95
2023-03-19T02:12:00.792Z,7.40
2023-03-19T02:14:28.125Z,7.72
2023-03-19T02:16:55.840Z,7.45
2023-03-19T02:19:32.122Z,7.35
2023-03-19T02:22:01.464Z,7.30
2023-03-19T02:24:39.117Z,8.30
2023-03-19T02:27:09.398Z,7.60
2023-03-19T02:29:36.419Z,6.65
2023-03-19T02:32:03.769Z,6.75
2023-03-19T02:34:36.861Z,7.47
2023-03-19T02:37:17.684Z,8.05
2023-03-19T02:39:51.835Z,5.95
2023-03-19T02:42:21.677Z,7.32
2023-03-19T02:44:48.805Z,6.78
2023-03-19T02:47:16.232Z,7.25
2023-03-19T02:49:43.309Z,6.55
2023-03-19T02:52:10.266Z,6.30
2023-03-19T02:54:37.119Z,6.25
2023-03-19T02:57:04.459Z,5.60
2023-03-19T02:59:31.538Z,5.57
2023-03-19T03:01:58.418Z,5.43
2023-03-19T03:04:26.378Z,4.68
2023-03-19T03:06:53.223Z,4.30
2023-03-19T03:09:20.627Z,4.30
2023-03-19T03:11:47.837Z,3.95
2023-03-19T03:14:14.645Z,3.30
2023-03-19T03:16:41.848Z,3.45
2023-03-19T03:19:08.898Z,2.85
2023-03-19T03:21:36.210Z,3.15
2023-03-19T03:24:03.269Z,3.00
2023-03-19T03:26:30.100Z,2.95
2023-03-19T03:28:56.906Z,2.80
2023-03-19T03:31:23.766Z,2.33
2023-03-19T03:33:50.652Z,2.03
2023-03-19T03:36:17.684Z,2.42
2023-03-19T03:38:46.030Z,2.15
2023-03-19T03:41:12.910Z,2.28
2023-03-19T03:43:41.073Z,1.95
2023-03-19T03:46:08.771Z,2.20
2023-03-19T03:48:35.843Z,1.98
2023-03-19T03:51:03.314Z,2.08
2023-03-19T03:53:30.485Z,2.22
2023-03-19T03:55:57.300Z,2.05
2023-03-19T03:58:24.150Z,1.92
2023-03-19T04:00:51.537Z,1.92
2023-03-19T04:03:19.547Z,1.55
2023-03-19T04:05:46.455Z,2.05
2023-03-19T04:08:13.850Z,1.88
2023-03-19T04:10:42.521Z,1.95
2023-03-19T04:13:10.196Z,2.15
2023-03-19T04:15:37.244Z,1.80
2023-03-19T04:18:04.222Z,1.88
2023-03-19T04:20:31.528Z,1.52
2023-03-19T04:22:58.643Z,1.60
2023-03-19T04:25:26.019Z,1.85
2023-03-19T04:27:52.974Z,1.40
2023-03-19T04:30:20.564Z,1.50
2023-03-19T04:32:47.691Z,1.50
2023-03-19T04:35:14.727Z,2.08
2023-03-19T04:37:43.500Z,1.80
2023-03-19T04:40:11.070Z,1.90
2023-03-19T04:42:37.892Z,1.80
2023-03-19T04:45:05.451Z,1.45
2023-03-19T04:47:32.245Z,1.70
2023-03-19T04:49:59.031Z,1.70
2023-03-19T04:52:26.128Z,2.03
2023-03-19T04:54:52.953Z,2.05
2023-03-19T04:57:19.978Z,1.50
2023-03-19T04:59:46.880Z,1.70
2023-03-19T05:02:13.790Z,1.77
2023-03-19T05:04:41.105Z,1.83
2023-03-19T05:07:08.050Z,1.48
2023-03-19T05:09:34.965Z,1.40
2023-03-19T05:12:01.867Z,1.35
2023-03-19T05:14:28.798Z,1.38
2023-03-19T05:16:55.583Z,1.67
2023-03-19T05:19:22.818Z,1.70
2023-03-19T05:21:49.937Z,1.80
2023-03-19T05:24:16.771Z,1.80
2023-03-19T05:26:43.691Z,1.60
2023-03-19T05:29:11.282Z,1.88
2023-03-19T05:31:38.676Z,2.20
2023-03-19T05:34:05.678Z,1.60
2023-03-19T05:36:32.645Z,2.20
2023-03-19T05:38:59.627Z,1.83
2023-03-19T05:41:26.973Z,2.25
2023-03-19T05:43:53.824Z,1.90
2023-03-19T05:46:20.683Z,1.70
2023-03-19T05:48:47.798Z,1.70
2023-03-19T05:51:14.810Z,1.65
2023-03-19T05:53:41.707Z,1.77
2023-03-19T05:56:10.125Z,2.17
2023-03-19T05:58:36.959Z,2.00
2023-03-19T06:01:03.888Z,2.38
2023-03-19T06:03:30.849Z,2.05
2023-03-19T06:05:57.889Z,1.98
2023-03-19T06:08:24.804Z,2.10
2023-03-19T06:10:53.153Z,2.15
2023-03-19T06:13:20.115Z,1.73
2023-03-19T06:15:49.172Z,2.40
2023-03-19T06:18:16.965Z,2.17
2023-03-19T06:20:43.885Z,1.80
2023-03-19T06:23:10.812Z,1.48
2023-03-19T06:25:37.732Z,1.50
2023-03-19T06:28:05.898Z,1.70
2023-03-19T06:30:34.303Z,1.50
2023-03-19T06:33:01.718Z,1.63
2023-03-19T06:35:28.605Z,1.58
2023-03-19T06:37:55.912Z,2.03
2023-03-19T06:40:22.982Z,1.52
2023-03-19T06:42:49.881Z,1.85
2023-03-19T06:45:18.970Z,1.90
2023-03-19T06:47:47.350Z,2.35
2023-03-19T06:50:16.445Z,2.60
2023-03-19T06:52:44.889Z,2.67
2023-03-19T06:55:12.675Z,2.05
2023-03-19T06:57:39.784Z,2.63
2023-03-19T07:00:10.435Z,2.95
2023-03-19T07:02:37.554Z,3.38
2023-03-19T07:05:05.467Z,2.45
2023-03-19T07:07:32.493Z,2.58
2023-03-19T07:09:59.471Z,2.30
2023-03-19T07:12:28.985Z,2.70
2023-03-19T07:14:56.607Z,3.03
2023-03-19T07:17:24.643Z,3.03
2023-03-19T07:19:52.090Z,3.60
2023-03-19T07:22:19.201Z,3.38
2023-03-19T07:24:46.135Z,2.85
2023-03-19T07:27:13.119Z,3.08
2023-03-19T07:29:40.174Z,2.63
2023-03-19T07:32:12.829Z,2.72
2023-03-19T07:34:39.796Z,3.42
2023-03-19T07:37:06.754Z,3.58
2023-03-19T07:39:34.191Z,2.78
2023-03-19T07:42:01.039Z,2.70
2023-03-19T07:44:27.848Z,3.08
2023-03-19T07:46:54.685Z,3.00
2023-03-19T07:49:22.251Z,3.28
2023-03-19T07:51:49.428Z,3.80
2023-03-19T07:54:16.348Z,3.75
2023-03-19T07:56:43.293Z,3.65
2023-03-19T07:59:11.195Z,3.55
2023-03-19T08:01:38.019Z,4.05
2023-03-19T08:04:05.193Z,3.35
2023-03-19T08:06:32.079Z,3.70
2023-03-19T08:08:58.927Z,4.22
2023-03-19T08:11:26.110Z,3.90
2023-03-19T08:13:52.939Z,5.05
2023-03-19T08:16:19.923Z,4.95
2023-03-19T08:18:52.381Z,5.43
2023-03-19T08:21:19.341Z,5.35
2023-03-19T08:23:46.329Z,4.72
2023-03-19T08:26:13.190Z,4.25
2023-03-19T08:28:40.143Z,5.15
2023-03-19T08:31:12.584Z,5.13
2023-03-19T08:33:41.820Z,5.32
2023-03-19T08:36:14.095Z,4.68
2023-03-19T08:38:41.643Z,4.25
2023-03-19T08:41:09.407Z,5.93
2023-03-19T08:43:37.933Z,4.85
2023-03-19T08:46:05.732Z,4.97
2023-03-19T08:48:32.694Z,4.65
2023-03-19T08:51:02.588Z,5.35
2023-03-19T08:53:30.769Z,4.78
2023-03-19T08:56:00.734Z,4.35
2023-03-19T08:58:28.355Z,4.82
2023-03-19T09:01:05.903Z,4.22
2023-03-19T09:03:33.278Z,4.68
2023-03-19T09:06:02.326Z,4.20
2023-03-19T09:08:30.971Z,3.97
2023-03-19T09:10:58.341Z,3.10
2023-03-19T09:13:26.108Z,3.60
2023-03-19T09:15:53.338Z,4.28
2023-03-19T09:18:29.416Z,4.32
2023-03-19T09:20:56.334Z,4.00
2023-03-19T09:23:23.732Z,3.67
2023-03-19T09:25:51.338Z,3.80
2023-03-19T09:28:19.211Z,2.72
2023-03-19T09:30:47.942Z,2.75
2023-03-19T09:33:19.488Z,2.45
2023-03-19T09:35:52.708Z,3.05
2023-03-19T09:38:25.030Z,2.47
2023-03-19T09:41:23.958Z,2.53
2023-03-19T09:44:04.506Z,2.85
2023-03-19T09:46:54.534Z,3.65
2023-03-19T09:49:30.349Z,3.03
2023-03-19T09:52:18.038Z,3.70
2023-03-19T09:54:54.923Z,3.20
2023-03-19T09:57:22.350Z,3.10
2023-03-19T09:59:49.737Z,3.13
2023-03-19T10:02:43.240Z,3.25
2023-03-19T10:05:22.684Z,4.13
2023-03-19T10:08:04.651Z,3.70
2023-03-19T10:10:38.489Z,4.07
2023-03-19T10:13:14.153Z,3.30
2023-03-19T10:15:44.311Z,3.15
2023-03-19T10:18:28.271Z,3.38
2023-03-19T10:21:09.044Z,4.00
2023-03-19T10:23:52.930Z,4.18
2023-03-19T10:26:21.769Z,4.20
2023-03-19T10:29:02.278Z,3.00
2023-03-19T10:31:40.967Z,3.28
2023-03-19T10:34:34.878Z,2.67
2023-03-19T10:37:27.179Z,2.28
2023-03-19T10:39:59.437Z,2.88
2023-03-19T10:42:42.524Z,2.83
2023-03-19T10:45:25.123Z,2.90
2023-03-19T10:47:53.040Z,3.20
2023-03-19T10:50:42.921Z,2.65
2023-03-19T10:53:15.832Z,2.90
2023-03-19T10:55:55.643Z,3.17
2023-03-19T10:58:27.902Z,2.95
2023-03-19T11:01:04.090Z,3.40
2023-03-19T11:04:10.575Z,2.80
2023-03-19T11:06:39.431Z,2.83
2023-03-19T11:09:09.033Z,2.80
2023-03-19T11:11:42.604Z,2.85
2023-03-19T11:14:18.434Z,2.97
2023-03-19T11:17:18.653Z,3.15
2023-03-19T11:19:52.530Z,3.38
2023-03-19T11:22:29.900Z,2.50
2023-03-19T11:25:01.081Z,2.70
2023-03-19T11:27:36.258Z,2.78
2023-03-19T11:30:13.170Z,2.88
2023-03-19T11:32:40.143Z,2.95
2023-03-19T11:35:20.605Z,2.88
2023-03-19T11:38:05.092Z,3.20
2023-03-19T11:40:46.056Z,3.83
2023-03-19T11:43:38.346Z,3.28
2023-03-19T11:46:26.876Z,3.28
2023-03-19T11:48:59.748Z,2.90
2023-03-19T11:51:36.270Z,3.03
2023-03-19T11:54:43.633Z,2.38
2023-03-19T11:57:29.117Z,2.10
2023-03-19T12:00:20.893Z,2.55
2023-03-19T12:03:13.155Z,2.38
2023-03-19T12:06:05.539Z,2.20
2023-03-19T12:08:50.730Z,1.90
2023-03-19T12:11:41.753Z,3.70
2023-03-19T12:14:26.701Z,2.40
2023-03-19T12:17:22.264Z,2.55
2023-03-19T12:20:02.558Z,2.50
2023-03-19T12:22:46.426Z,2.38
2023-03-19T12:25:32.604Z,3.80
2023-03-19T12:28:13.460Z,3.15
2023-03-19T12:30:54.586Z,4.35
2023-03-19T12:33:47.046Z,2.15
2023-03-19T12:36:32.124Z,3.13
2023-03-19T12:39:05.375Z,2.65
2023-03-19T12:41:36.485Z,2.45
2023-03-19T12:44:19.932Z,3.10
2023-03-19T12:46:58.565Z,3.53
2023-03-19T12:49:44.642Z,3.42
2023-03-19T12:52:41.832Z,3.60
2023-03-19T12:55:22.417Z,3.47
2023-03-19T12:57:51.847Z,3.40
2023-03-19T13:00:26.370Z,3.63
2023-03-19T13:03:22.461Z,3.70
2023-03-19T13:06:10.276Z,3.60
2023-03-19T13:08:49.779Z,3.47
2023-03-19T13:11:39.608Z,3.53
2023-03-19T13:14:22.633Z,3.25
2023-03-19T13:16:55.388Z,3.97
2023-03-19T13:19:31.996Z,3.38
2023-03-19T13:22:04.667Z,2.63
2023-03-19T13:24:37.056Z,2.13
2023-03-19T13:27:06.635Z,2.95
2023-03-19T13:29:36.907Z,3.67
2023-03-19T13:32:36.518Z,2.85
2023-03-19T13:35:27.279Z,2.60
2023-03-19T13:38:22.675Z,3.63
2023-03-19T13:40:49.570Z,3.28
2023-03-19T13:43:29.222Z,3.75
2023-03-19T13:46:05.965Z,3.00
2023-03-19T13:48:33.227Z,2.63
2023-03-19T13:51:05.672Z,2.42
2023-03-19T13:53:32.530Z,3.10
2023-03-19T13:56:22.530Z,2.35
2023-03-19T13:59:16.791Z,3.22
2023-03-19T14:01:45.203Z,3.13
2023-03-19T14:04:29.294Z,3.00
2023-03-19T14:06:59.352Z,3.20
2023-03-19T14:09:32.606Z,2.58
2023-03-19T14:12:15.918Z,2.47
2023-03-19T14:14:46.930Z,3.38
2023-03-19T14:17:22.584Z,2.30
2023-03-19T14:19:52.293Z,2.70
2023-03-19T14:22:33.003Z,3.00
2023-03-19T14:25:05.954Z,2.53
2023-03-19T14:27:33.709Z,3.08
2023-03-19T14:30:09.912Z,2.55
2023-03-19T14:32:42.762Z,3.28
2023-03-19T14:35:16.679Z,3.13
2023-03-19T14:37:49.451Z,3.85
2023-03-19T14:40:20.934Z,3.20
2023-03-19T14:43:05.283Z,4.30
2023-03-19T14:45:42.382Z,3.58
2023-03-19T14:48:09.449Z,3.20
2023-03-19T14:50:54.030Z,2.95
2023-03-19T14:56:19.229Z,3.60
2023-03-19T14:58:56.978Z,3.15
2023-03-19T15:01:27.084Z,3.97
2023-03-19T15:04:07.866Z,3.65
2023-03-19T15:06:38.781Z,3.92
2023-03-19T15:09:31.659Z,3.88
2023-03-19T15:12:33.758Z,4.28
2023-03-19T15:15:15.572Z,3.63
2023-03-19T15:17:47.090Z,4.35
2023-03-19T15:20:23.580Z,4.95
2023-03-19T15:23:05.797Z,5.28
2023-03-19T15:25:49.468Z,4.80
2023-03-19T15:28:19.582Z,4.55
2023-03-19T15:31:03.533Z,4.90
2023-03-19T15:33:44.068Z,4.65
2023-03-19T15:36:24.624Z,4.43
2023-03-19T15:39:00.323Z,6.28
2023-03-19T15:41:31.380Z,5.30
2023-03-19T15:44:00.393Z,5.25
2023-03-19T15:46:34.537Z,5.70
2023-03-19T15:49:21.300Z,5.30
2023-03-19T15:51:53.617Z,5.93
2023-03-19T15:54:22.184Z,4.63
2023-03-19T15:56:52.016Z,5.53
2023-03-19T15:59:21.911Z,6.35
2023-03-19T16:01:49.989Z,6.20
2023-03-19T16:04:22.068Z,6.40
2023-03-19T16:06:50.687Z,6.13
2023-03-19T16:09:36.157Z,6.80
2023-03-19T16:12:38.661Z,6.30
2023-03-19T16:15:40.611Z,7.00
2023-03-19T16:18:27.888Z,7.28
2023-03-19T16:21:08.594Z,5.75
2023-03-19T16:23:57.709Z,6.40
2023-03-19T16:26:30.730Z,5.45
2023-03-19T16:28:59.775Z,5.78
2023-03-19T16:31:32.011Z,5.93
2023-03-19T16:33:59.449Z,5.95
2023-03-19T16:36:32.390Z,6.07
2023-03-19T16:39:23.787Z,5.43
2023-03-19T16:42:29.383Z,5.10
2023-03-19T16:47:25.769Z,5.15
2023-03-19T16:49:52.592Z,5.13
2023-03-19T16:52:23.823Z,5.50
2023-03-19T16:54:52.068Z,5.57
2023-03-19T16:57:19.699Z,5.38
2023-03-19T16:59:47.200Z,5.53
2023-03-19T17:02:17.024Z,5.95
2023-03-19T17:04:44.627Z,6.28
2023-03-19T17:07:12.281Z,6.00
2023-03-19T17:09:39.476Z,5.30
2023-03-19T17:12:13.358Z,5.38
2023-03-19T17:14:40.482Z,6.93
2023-03-19T17:17:18.938Z,5.57
2023-03-19T17:19:46.941Z,5.85
2023-03-19T17:22:14.486Z,6.25
2023-03-19T17:24:41.966Z,6.55
2023-03-19T17:27:09.842Z,7.82
2023-03-19T17:29:36.807Z,6.15
2023-03-19T17:32:06.884Z,6.50
2023-03-19T17:34:35.547Z,6.45
2023-03-19T17:37:04.095Z,7.40
2023-03-19T17:39:31.570Z,6.88
2023-03-19T17:41:59.030Z,5.65
2023-03-19T17:44:25.977Z,7.05
2023-03-19T17:46:54.628Z,7.20
2023-03-19T17:49:22.821Z,7.70
2023-03-19T17:51:52.849Z,7.75
2023-03-19T17:54:20.031Z,8.13
2023-03-19T17:56:46.934Z,7.90
2023-03-19T17:59:14.380Z,7.70
2023-03-19T18:01:47.098Z,6.70
2023-03-19T18:04:17.996Z,7.63
2023-03-19T18:06:49.989Z,6.88
2023-03-19T18:09:28.309Z,7.00
2023-03-19T18:11:55.617Z,7.60
2023-03-19T18:14:22.545Z,8.35
2023-03-19T18:16:49.730Z,6.03
2023-03-19T18:19:21.167Z,6.78
2023-03-19T18:21:48.076Z,6.72
2023-03-19T18:24:14.968Z,6.97
2023-03-19T18:26:41.888Z,6.65
2023-03-19T18:29:09.137Z,6.60
2023-03-19T18:31:37.236Z,6.53
2023-03-19T18:34:08.447Z,6.93
2023-03-19T18:36:35.725Z,6.93
2023-03-19T18:39:03.483Z,7.25
2023-03-19T18:41:30.473Z,6.88
2023-03-19T18:43:57.479Z,7.13
2023-03-19T18:46:31.041Z,7.15
2023-03-19T18:49:04.873Z,7.90
2023-03-19T18:51:31.874Z,6.40
2023-03-19T18:53:59.047Z,7.20
2023-03-19T18:56:29.636Z,7.07
2023-03-19T18:58:58.711Z,8.80
2023-03-19T19:01:27.087Z,7.43
2023-03-19T19:03:54.488Z,7.28
2023-03-19T19:06:45.954Z,8.18
2023-03-19T19:09:13.307Z,8.27
2023-03-19T19:11:41.834Z,8.02
2023-03-19T19:14:19.694Z,8.73
2023-03-19T19:16:46.967Z,9.25
2023-03-19T19:19:21.151Z,9.07
2023-03-19T19:21:48.308Z,8.73
2023-03-19T19:24:15.285Z,9.48
2023-03-19T19:26:44.474Z,7.78
2023-03-19T19:29:26.477Z,8.80
2023-03-19T19:31:54.365Z,8.38
2023-03-19T19:34:21.466Z,7.72
2023-03-19T19:36:48.370Z,7.82
2023-03-19T19:39:15.222Z,8.05
2023-03-19T19:41:43.773Z,6.30
2023-03-19T19:44:22.262Z,8.55
2023-03-19T19:46:53.391Z,8.18
2023-03-19T19:49:21.692Z,7.13
2023-03-19T19:51:48.657Z,6.72
2023-03-19T19:54:16.125Z,5.68
2023-03-19T19:56:43.073Z,6.63
2023-03-19T19:59:14.923Z,7.07
2023-03-19T20:01:41.937Z,6.85
2023-03-19T20:04:14.471Z,7.05
2023-03-19T20:06:41.780Z,7.65
2023-03-19T20:09:08.615Z,7.10
2023-03-19T20:11:35.689Z,6.78
2023-03-19T20:14:02.650Z,6.70
2023-03-19T20:16:29.597Z,5.82
2023-03-19T20:18:56.926Z,6.13
2023-03-19T20:21:23.991Z,6.53
2023-03-19T20:23:56.032Z,7.30
2023-03-19T20:26:24.939Z,6.80
2023-03-19T20:28:52.120Z,6.82
2023-03-19T20:31:28.056Z,6.03
2023-03-19T20:33:55.094Z,6.40
2023-03-19T20:36:22.265Z,6.65
2023-03-19T20:38:49.206Z,7.40
2023-03-19T20:41:20.362Z,6.75
2023-03-19T20:43:47.868Z,5.88
2023-03-19T20:46:15.841Z,6.47
2023-03-19T20:48:42.711Z,6.30
2023-03-19T20:51:22.318Z,5.78
2023-03-19T20:53:51.239Z,5.40
2023-03-19T20:56:21.053Z,4.97
2023-03-19T20:58:48.372Z,5.18
2023-03-19T21:01:15.882Z,4.13
2023-03-19T21:03:42.776Z,3.42
2023-03-19T21:06:18.163Z,3.33
2023-03-19T21:08:48.605Z,2.45
2023-03-19T21:11:18.193Z,2.28
2023-03-19T21:13:46.442Z,2.00
2023-03-19T21:16:25.735Z,3.25
2023-03-19T21:18:53.966Z,2.50
2023-03-19T21:21:29.740Z,2.85
2023-03-19T21:24:01.175Z,1.80
2023-03-19T21:26:28.086Z,2.50
2023-03-19T21:29:05.653Z,3.08
2023-03-19T21:31:33.492Z,2.53
2023-03-19T21:34:01.294Z,2.08
2023-03-19T21:36:29.041Z,3.22
2023-03-19T21:38:56.418Z,2.72
2023-03-19T21:41:30.214Z,3.03
2023-03-19T21:44:00.679Z,2.90
2023-03-19T21:46:30.153Z,3.35
2023-03-19T21:48:58.571Z,2.63
2023-03-19T21:51:26.985Z,3.72
2023-03-19T21:53:53.925Z,2.85
2023-03-19T21:56:33.466Z,2.90
2023-03-19T21:59:03.528Z,2.65
2023-03-19T22:01:30.542Z,3.22
2023-03-19T22:03:58.351Z,3.28
2023-03-19T22:06:25.882Z,3.42
2023-03-19T22:08:54.356Z,3.65
2023-03-19T22:11:31.492Z,2.88
2023-03-19T22:14:06.503Z,2.90
2023-03-19T22:16:33.924Z,2.80
2023-03-19T22:19:01.609Z,2.92
2023-03-19T22:21:30.985Z,3.50
2023-03-19T22:23:57.989Z,2.80
2023-03-19T22:26:30.994Z,2.90
2023-03-19T22:29:01.090Z,3.53
2023-03-19T22:31:28.930Z,3.45
2023-03-19T22:33:56.533Z,2.70
2023-03-19T22:36:23.533Z,3.55
2023-03-19T22:38:51.451Z,3.47
2023-03-19T22:41:32.172Z,2.92
2023-03-19T22:44:01.296Z,3.25
2023-03-19T22:46:28.577Z,3.08
2023-03-19T22:48:55.703Z,3.67
2023-03-19T22:51:25.075Z,3.25
2023-03-19T22:53:52.152Z,3.40
2023-03-19T22:56:20.467Z,2.80
2023-03-19T22:58:48.975Z,3.33
2023-03-19T23:01:20.575Z,2.90
2023-03-19T23:03:48.889Z,3.15
2023-03-19T23:06:30.147Z,2.63
2023-03-19T23:08:57.532Z,2.92
2023-03-19T23:11:24.577Z,3.05
2023-03-19T23:13:51.762Z,3.30
2023-03-19T23:16:24.615Z,3.55
2023-03-19T23:18:52.483Z,3.25
2023-03-19T23:21:20.918Z,3.15
2023-03-19T23:23:47.739Z,3.35
2023-03-19T23:26:26.694Z,3.28
2023-03-19T23:28:56.439Z,3.72
2023-03-19T23:31:23.453Z,3.35
2023-03-19T23:33:50.223Z,3.40
2023-03-19T23:36:19.283Z,2.92
2023-03-19T23:38:46.800Z,3.70
2023-03-19T23:41:24.994Z,3.65
2023-03-19T23:43:53.229Z,3.22
2023-03-19T23:46:21.095Z,2.83
2023-03-19T23:48:48.076Z,2.92
2023-03-19T23:51:16.854Z,3.33
2023-03-19T23:53:43.943Z,2.80
2023-03-19T23:56:26.112Z,2.75
